Time;durP1;ratioP1;P1;durP2;ratioP2;P2;SDS_P1;SDS_P2;PMS_P1;PMS_P2;Temp;Humidity;BMP_temperature;BMP_pressure;BME280_temperature;BME280_humidity;BME280_pressure;Samples;Min_cycle;Max_cycle;Signal;HPM_P1;HPM_P2
2023/03/03 00:00:49;;;;;;;52.00;17.20;;;;;;;1.26;100.00;147762.97;5022370;28;20018;-63
2023/03/03 00:03:17;;;;;;;42.87;15.00;;;;;;;1.32;100.00;147778.38;5020409;28;20481;-64
2023/03/03 00:05:43;;;;;;;48.33;16.80;;;;;;;1.30;100.00;147773.22;5030573;28;20030;-66
2023/03/03 00:08:09;;;;;;;48.77;16.80;;;;;;;1.28;100.00;147768.09;5025626;28;20438;-64
2023/03/03 00:10:35;;;;;;;54.80;17.00;;;;;;;1.29;100.00;147770.66;5030796;28;20029;-64
2023/03/03 00:13:01;;;;;;;49.63;16.50;;;;;;;1.31;100.00;147775.78;5018744;28;20112;-64
2023/03/03 00:15:27;;;;;;;50.13;18.70;;;;;;;1.32;100.00;147779.66;5017393;28;20163;-64
2023/03/03 00:17:53;;;;;;;47.60;17.20;;;;;;;1.27;100.00;147765.53;5030204;28;20014;-64
2023/03/03 00:20:35;;;;;;;48.50;17.50;;;;;;;1.28;100.00;147769.38;5001068;28;20024;-64
2023/03/03 00:23:21;;;;;;;;;;;;;;;1.37;100.00;147791.22;5029619;28;20032;-64
2023/03/03 00:25:49;;;;;;;47.87;17.00;;;;;;;1.35;100.00;147786.09;5029458;28;19982;-64
2023/03/03 00:28:30;;;;;;;48.80;17.43;;;;;;;1.35;100.00;147786.09;5023484;28;20091;-63
2023/03/03 00:30:59;;;;;;;46.92;17.02;;;;;;;1.36;100.00;147788.66;5022442;28;20032;-64
2023/03/03 00:33:33;;;;;;;47.30;17.43;;;;;;;1.35;100.00;147786.09;5014431;28;20030;-64
2023/03/03 00:36:20;;;;;;;50.93;17.67;;;;;;;1.37;100.00;147791.22;5018379;28;20032;-64
2023/03/03 00:38:47;;;;;;;46.90;17.10;;;;;;;1.29;100.00;147770.66;5028550;28;20029;-63
2023/03/03 00:41:23;;;;;;;43.63;16.33;;;;;;;1.34;100.00;147783.53;5014138;28;20405;-64
2023/03/03 00:43:50;;;;;;;44.70;16.60;;;;;;;1.32;100.00;147778.38;5016524;28;20036;-64
2023/03/03 00:46:21;;;;;;;44.73;17.67;;;;;;;1.25;100.00;147760.41;5023715;28;20037;-64
2023/03/03 00:48:47;;;;;;;44.05;16.58;;;;;;;1.20;100.00;147747.53;5024754;28;20025;-63
2023/03/03 00:51:22;;;;;;;42.60;16.50;;;;;;;1.20;100.00;147747.53;5017308;28;20072;-64
2023/03/03 00:53:48;;;;;;;43.83;15.63;;;;;;;1.16;100.00;147739.84;5027167;28;20465;-63
2023/03/03 00:56:14;;;;;;;43.07;16.10;;;;;;;1.19;100.00;147746.25;5014704;28;20040;-64
2023/03/03 00:58:39;;;;;;;37.13;13.13;;;;;;;1.23;100.00;147755.28;5028808;28;20389;-63
2023/03/03 01:01:04;;;;;;;45.43;16.20;;;;;;;1.27;100.00;147765.53;5029362;28;20036;-63
2023/03/03 01:03:30;;;;;;;42.50;15.47;;;;;;;1.26;100.00;147764.25;5027179;28;20500;-64
2023/03/03 01:05:56;;;;;;;43.73;15.97;;;;;;;1.23;100.00;147755.28;5020115;28;20049;-64
2023/03/03 01:08:22;;;;;;;41.43;16.57;;;;;;;1.22;100.00;147754.00;5027092;28;20027;-63
2023/03/03 01:10:53;;;;;;;49.10;18.63;;;;;;;1.20;100.00;147747.53;5014667;28;20037;-64
2023/03/03 01:13:24;;;;;;;45.70;17.67;;;;;;;1.23;100.00;147755.28;5023098;28;20021;-63
2023/03/03 01:15:50;;;;;;;;;;;;;;;1.18;100.00;147744.97;5021882;28;20025;-62
2023/03/03 01:18:15;;;;;;;47.37;17.60;;;;;;;1.23;100.00;147755.28;5023011;28;20301;-64
2023/03/03 01:20:41;;;;;;;44.53;16.63;;;;;;;1.22;100.00;147752.72;5025231;28;20395;-63
2023/03/03 01:23:07;;;;;;;48.50;17.43;;;;;;;1.27;100.00;147766.81;5021509;28;20381;-63
2023/03/03 01:25:32;;;;;;;50.00;20.17;;;;;;;1.24;100.00;147757.84;5029162;28;20029;-62
2023/03/03 01:27:58;;;;;;;47.70;17.90;;;;;;;1.31;100.00;147775.78;5028724;28;20354;-63
2023/03/03 01:30:24;;;;;;;47.83;17.97;;;;;;;1.32;100.00;147778.38;5021296;28;20443;-63
2023/03/03 01:32:50;;;;;;;52.50;18.67;;;;;;;1.29;100.00;147770.66;5012587;28;20025;-64
2023/03/03 01:35:16;;;;;;;54.77;19.50;;;;;;;1.27;100.00;147765.53;5025424;28;20488;-63
2023/03/03 01:37:41;;;;;;;49.47;19.17;;;;;;;1.30;100.00;147773.22;5025308;28;20033;-63
2023/03/03 01:40:13;;;;;;;51.07;18.90;;;;;;;1.31;100.00;147777.06;5021592;28;20026;-65
2023/03/03 01:42:39;;;;;;;58.70;20.27;;;;;;;1.30;100.00;147773.22;5029599;28;20090;-63
2023/03/03 01:45:13;;;;;;;56.63;18.57;;;;;;;1.36;100.00;147788.66;5029419;28;20474;-64
2023/03/03 01:47:45;;;;;;;58.30;20.00;;;;;;;1.32;100.00;147779.66;5027542;28;20037;-63
2023/03/03 01:50:13;;;;;;;;;;;;;;;1.26;100.00;147762.97;5021481;28;20560;-63
2023/03/03 01:52:41;;;;;;;76.07;22.90;;;;;;;1.26;100.00;147764.25;5025742;28;19923;-64
2023/03/03 01:55:33;;;;;;;78.43;21.67;;;;;;;1.24;100.00;147757.84;5017649;28;20026;-64
2023/03/03 01:58:07;;;;;;;83.88;24.35;;;;;;;1.21;100.00;147750.09;5016654;28;20029;-63
2023/03/03 02:00:37;;;;;;;81.30;24.10;;;;;;;1.25;100.00;147760.41;5032562;22;20180;-63
2023/03/03 02:03:03;;;;;;;94.67;27.23;;;;;;;1.24;100.00;147757.84;5016510;28;20041;-63
2023/03/03 02:05:29;;;;;;;90.93;24.03;;;;;;;1.22;100.00;147752.72;5019686;28;20041;-63
2023/03/03 02:07:54;;;;;;;116.53;28.13;;;;;;;1.18;100.00;147744.97;5023814;28;20071;-63
2023/03/03 02:10:21;;;;;;;129.50;31.00;;;;;;;1.22;100.00;147754.00;5022493;28;20439;-63
2023/03/03 02:12:55;;;;;;;125.67;29.13;;;;;;;1.24;100.00;147757.84;5024197;28;20037;-63
2023/03/03 02:15:31;;;;;;;135.67;30.70;;;;;;;1.27;100.00;147765.53;5025141;28;20467;-63
2023/03/03 02:18:00;;;;;;;139.70;31.57;;;;;;;1.25;100.00;147760.41;5014938;28;20085;-63
2023/03/03 02:20:47;;;;;;;139.37;30.67;;;;;;;1.27;100.00;147765.53;5012916;28;20549;-63
2023/03/03 02:23:25;;;;;;;153.33;33.17;;;;;;;1.27;100.00;147765.53;5014848;28;20030;-63
2023/03/03 02:25:57;;;;;;;146.97;34.43;;;;;;;1.24;100.00;147757.84;5004918;28;20029;-63
2023/03/03 02:28:27;;;;;;;;;;;;;;;1.27;100.00;147765.53;5024729;28;20033;-62
2023/03/03 02:30:57;;;;;;;157.90;32.80;;;;;;;1.28;100.00;147768.09;5022319;28;20353;-63
2023/03/03 02:33:23;;;;;;;155.50;34.00;;;;;;;1.26;100.00;147764.25;5018755;28;20079;-63
2023/03/03 02:35:49;;;;;;;153.53;34.67;;;;;;;1.27;100.00;147765.53;5023819;28;20138;-63
2023/03/03 02:38:34;;;;;;;157.23;33.40;;;;;;;1.25;100.00;147760.41;5012420;28;20056;-63
2023/03/03 02:41:08;;;;;;;163.80;33.90;;;;;;;1.28;100.00;147768.09;5012659;28;20045;-63
2023/03/03 02:43:52;;;;;;;168.67;34.00;;;;;;;1.24;100.00;147759.13;5015041;28;20116;-63
2023/03/03 02:46:18;;;;;;;171.63;34.20;;;;;;;1.28;100.00;147768.09;5026582;28;20497;-63
2023/03/03 02:48:43;;;;;;;157.50;33.73;;;;;;;1.27;100.00;147766.81;5026248;28;20397;-63
2023/03/03 02:51:09;;;;;;;172.13;34.87;;;;;;;1.28;100.00;147769.38;5024462;28;20029;-62
2023/03/03 02:53:34;;;;;;;179.83;34.87;;;;;;;1.30;100.00;147774.50;5029098;28;20464;-63
2023/03/03 02:56:00;;;;;;;161.83;34.83;;;;;;;1.26;100.00;147762.97;5026092;28;20404;-63
2023/03/03 02:58:26;;;;;;;164.87;34.20;;;;;;;1.23;100.00;147755.28;5024836;28;20554;-63
2023/03/03 03:00:51;;;;;;;144.33;33.17;;;;;;;1.29;100.00;147770.66;5019192;28;20057;-63
2023/03/03 03:03:16;;;;;;;155.60;33.47;;;;;;;1.27;100.00;147765.53;5014384;28;20105;-63
2023/03/03 03:05:42;;;;;;;173.67;34.70;;;;;;;1.27;100.00;147766.81;5025087;28;20045;-63
2023/03/03 03:08:07;;;;;;;176.87;37.50;;;;;;;1.27;100.00;147766.81;5027472;28;20512;-62
2023/03/03 03:10:33;;;;;;;165.17;33.40;;;;;;;1.30;100.00;147773.22;5027437;28;20087;-63
2023/03/03 03:12:59;;;;;;;171.93;34.97;;;;;;;1.28;100.00;147768.09;5019259;28;20029;-65
2023/03/03 03:15:24;;;;;;;173.50;34.87;;;;;;;1.29;100.00;147770.66;5026760;28;21004;-63
2023/03/03 03:17:50;;;;;;;163.03;35.10;;;;;;;1.32;100.00;147778.38;5017596;28;20030;-63
2023/03/03 03:20:16;;;;;;;156.83;33.40;;;;;;;1.31;100.00;147775.78;5018995;28;20424;-63
2023/03/03 03:22:41;;;;;;;157.83;33.00;;;;;;;1.34;100.00;147784.81;5027184;28;20108;-63
2023/03/03 03:25:07;;;;;;;167.83;34.57;;;;;;;1.33;100.00;147780.94;5026693;28;20078;-63
2023/03/03 03:27:32;;;;;;;173.80;35.30;;;;;;;1.34;100.00;147783.53;5032417;28;20048;-63
2023/03/03 03:29:58;;;;;;;165.00;33.17;;;;;;;1.32;100.00;147778.38;5031275;28;20380;-63
2023/03/03 03:32:23;;;;;;;167.13;36.63;;;;;;;1.32;100.00;147778.38;5021274;28;20029;-63
2023/03/03 03:34:49;;;;;;;159.83;34.07;;;;;;;1.34;100.00;147784.81;5031349;28;20492;-62
2023/03/03 03:37:14;;;;;;;155.17;33.70;;;;;;;1.37;100.00;147791.22;5027204;28;20492;-62
2023/03/03 03:39:39;;;;;;;161.87;34.07;;;;;;;1.37;100.00;147791.22;5029396;28;20456;-62
2023/03/03 03:42:05;;;;;;;168.23;34.60;;;;;;;1.37;100.00;147792.53;5031105;28;20037;-62
2023/03/03 03:44:30;;;;;;;153.30;33.80;;;;;;;1.38;100.00;147795.09;5025140;28;20041;-61
2023/03/03 03:46:56;;;;;;;144.60;32.13;;;;;;;1.38;100.00;147793.81;5018372;28;20490;-62
2023/03/03 03:49:21;;;;;;;151.63;32.93;;;;;;;1.37;100.00;147791.22;5022075;28;20056;-62
2023/03/03 03:51:46;;;;;;;153.03;33.30;;;;;;;1.39;100.00;147796.38;5023014;28;20408;-63
2023/03/03 03:54:12;;;;;;;133.00;30.60;;;;;;;1.42;100.00;147804.06;5030535;28;20097;-63
2023/03/03 03:56:37;;;;;;;136.93;29.77;;;;;;;1.39;100.00;147796.38;5018521;28;20026;-63
2023/03/03 03:59:05;;;;;;;147.37;32.37;;;;;;;1.37;100.00;147791.22;5030798;28;20021;-63
2023/03/03 04:01:30;;;;;;;130.70;30.77;;;;;;;1.38;100.00;147795.09;5025609;28;21966;-63
2023/03/03 04:03:55;;;;;;;144.53;31.83;;;;;;;1.40;100.00;147800.22;5029151;28;20033;-63
2023/03/03 04:06:21;;;;;;;103.57;28.50;;;;;;;1.38;100.00;147793.81;5030478;28;20031;-63
2023/03/03 04:08:46;;;;;;;88.37;26.00;;;;;;;1.33;100.00;147782.25;5022406;28;20165;-63
2023/03/03 04:11:11;;;;;;;78.97;24.50;;;;;;;1.35;100.00;147787.38;5028484;28;20360;-63
2023/03/03 04:13:37;;;;;;;80.77;24.50;;;;;;;1.37;100.00;147791.22;5025784;28;20034;-63
2023/03/03 04:16:02;;;;;;;79.13;25.63;;;;;;;1.39;100.00;147796.38;5028293;28;20542;-63
2023/03/03 04:18:28;;;;;;;79.63;24.60;;;;;;;1.37;100.00;147791.22;5020627;28;20029;-63
2023/03/03 04:20:53;;;;;;;73.93;23.43;;;;;;;1.35;100.00;147786.09;5030897;28;20493;-63
2023/03/03 04:23:19;;;;;;;68.93;22.40;;;;;;;1.34;100.00;147783.53;5017878;28;20088;-63
2023/03/03 04:25:46;;;;;;;69.07;22.87;;;;;;;1.29;100.00;147771.94;5024626;28;20033;-63
2023/03/03 04:28:12;;;;;;;66.43;22.77;;;;;;;1.27;100.00;147765.53;5020440;28;20041;-62
2023/03/03 04:30:37;;;;;;;60.57;22.57;;;;;;;1.28;100.00;147768.09;5019091;28;20386;-63
2023/03/03 04:33:03;;;;;;;70.60;23.77;;;;;;;1.25;100.00;147760.41;5023467;28;20041;-63
2023/03/03 04:35:28;;;;;;;63.53;21.47;;;;;;;1.25;100.00;147760.41;5027955;28;20134;-63
2023/03/03 04:37:54;;;;;;;65.87;22.97;;;;;;;1.30;100.00;147773.22;5029602;28;20112;-63
2023/03/03 04:40:19;;;;;;;64.13;22.60;;;;;;;1.30;100.00;147773.22;5021342;28;20037;-66
2023/03/03 04:42:44;;;;;;;74.13;24.03;;;;;;;1.31;100.00;147775.78;5021325;28;20467;-63
2023/03/03 04:45:10;;;;;;;81.87;25.83;;;;;;;1.27;100.00;147765.53;5029172;28;20032;-63
2023/03/03 04:47:36;;;;;;;92.17;26.97;;;;;;;1.34;100.00;147784.81;5023783;28;20037;-63
2023/03/03 04:50:01;;;;;;;99.80;28.43;;;;;;;1.31;100.00;147777.06;5016480;28;20087;-63
2023/03/03 04:52:27;;;;;;;119.20;28.07;;;;;;;1.28;100.00;147769.38;5020930;28;20481;-63
2023/03/03 04:54:53;;;;;;;115.70;29.80;;;;;;;1.28;100.00;147768.09;5015669;28;20485;-63
2023/03/03 04:57:18;;;;;;;146.00;30.97;;;;;;;1.26;100.00;147762.97;5026933;28;20025;-63
2023/03/03 04:59:43;;;;;;;137.97;30.13;;;;;;;1.24;100.00;147757.84;5000516;28;20665;-63
2023/03/03 05:02:09;;;;;;;147.30;31.73;;;;;;;1.24;100.00;147757.84;5026175;28;20377;-63
2023/03/03 05:04:35;;;;;;;134.90;31.43;;;;;;;1.20;100.00;147747.53;5024305;28;20025;-63
2023/03/03 05:07:00;;;;;;;113.90;28.27;;;;;;;1.16;100.00;147739.84;5024205;28;20037;-62
2023/03/03 05:09:26;;;;;;;136.50;29.60;;;;;;;1.16;100.00;147738.56;5026748;28;20065;-63
2023/03/03 05:11:52;;;;;;;121.47;30.23;;;;;;;1.18;100.00;147743.69;5015930;28;20130;-63
2023/03/03 05:14:17;;;;;;;124.20;29.20;;;;;;;1.24;100.00;147757.84;5027707;28;20025;-63
2023/03/03 05:16:43;;;;;;;115.80;28.73;;;;;;;1.24;100.00;147759.13;5020765;28;20438;-63
2023/03/03 05:19:08;;;;;;;112.07;29.90;;;;;;;1.25;100.00;147760.41;5020883;28;20026;-63
2023/03/03 05:21:33;;;;;;;111.07;28.40;;;;;;;1.26;100.00;147762.97;5023345;28;20502;-63
2023/03/03 05:23:59;;;;;;;102.83;27.20;;;;;;;1.26;100.00;147762.97;5019695;28;20021;-63
2023/03/03 05:26:24;;;;;;;108.70;27.90;;;;;;;1.24;100.00;147757.84;5026521;28;20039;-64
2023/03/03 05:28:50;;;;;;;107.93;27.47;;;;;;;1.21;100.00;147751.38;5025333;28;20048;-63
2023/03/03 05:31:15;;;;;;;103.00;28.10;;;;;;;1.27;100.00;147765.53;5016897;28;20030;-64
2023/03/03 05:33:41;;;;;;;102.90;27.90;;;;;;;1.25;100.00;147760.41;4995755;28;20091;-64
2023/03/03 05:36:06;;;;;;;104.93;26.87;;;;;;;1.20;100.00;147747.53;5023342;28;20143;-63
2023/03/03 05:38:32;;;;;;;101.20;26.40;;;;;;;1.20;100.00;147747.53;5028703;28;20469;-63
2023/03/03 05:40:57;;;;;;;102.37;27.77;;;;;;;1.26;100.00;147762.97;5024569;28;20060;-64
2023/03/03 05:43:23;;;;;;;98.43;28.23;;;;;;;1.30;100.00;147773.22;5002461;28;20053;-64
2023/03/03 05:45:54;;;;;;;101.33;26.53;;;;;;;1.28;100.00;147769.38;5023941;28;20026;-65
2023/03/03 05:48:19;;;;;;;90.30;27.05;;;;;;;1.17;100.00;147742.41;5011762;28;20496;-65
2023/03/03 05:50:44;;;;;;;91.93;24.80;;;;;;;1.14;100.00;147734.72;5015957;28;20034;-66
2023/03/03 05:53:10;;;;;;;105.67;26.83;;;;;;;1.15;100.00;147736.00;5024447;28;20076;-65
2023/03/03 05:55:46;;;;;;;105.37;28.37;;;;;;;1.14;100.00;147734.72;5026767;28;20089;-65
2023/03/03 05:58:13;;;;;;;100.13;26.20;;;;;;;1.15;100.00;147737.28;5018449;28;20121;-65
2023/03/03 06:00:38;;;;;;;129.13;31.40;;;;;;;1.16;100.00;147738.56;5014353;28;20132;-65
2023/03/03 06:03:04;;;;;;;136.30;31.83;;;;;;;1.13;100.00;147732.16;5027203;28;20032;-65
2023/03/03 06:05:29;;;;;;;130.63;30.37;;;;;;;1.15;100.00;147736.00;5027910;28;20690;-65
2023/03/03 06:07:55;;;;;;;137.90;32.43;;;;;;;1.17;100.00;147742.41;5015950;28;20030;-65
2023/03/03 06:10:20;;;;;;;133.40;31.90;;;;;;;1.15;100.00;147736.00;5027481;28;20104;-65
2023/03/03 06:12:45;;;;;;;123.63;29.33;;;;;;;1.12;100.00;147729.56;5020650;28;20090;-65
2023/03/03 06:15:11;;;;;;;138.77;33.73;;;;;;;1.09;100.00;147721.88;5028406;28;20014;-65
2023/03/03 06:17:36;;;;;;;126.53;30.10;;;;;;;1.23;100.00;147756.56;5022036;28;20029;-65
2023/03/03 06:20:03;;;;;;;137.73;31.13;;;;;;;1.20;100.00;147747.53;5017924;28;20071;-65
2023/03/03 06:22:29;;;;;;;130.90;30.57;;;;;;;1.26;100.00;147762.97;5022501;28;20033;-65
2023/03/03 06:24:54;;;;;;;133.47;30.53;;;;;;;1.29;100.00;147770.66;5022352;28;20022;-65
2023/03/03 06:27:20;;;;;;;122.60;29.90;;;;;;;1.32;100.00;147779.66;5027985;28;20503;-65
2023/03/03 06:29:45;;;;;;;127.67;30.93;;;;;;;1.34;100.00;147783.53;5024974;28;20025;-65
2023/03/03 06:32:13;;;;;;;133.07;30.63;;;;;;;1.32;100.00;147779.66;5016671;28;20475;-65
2023/03/03 06:34:39;;;;;;;134.53;31.53;;;;;;;1.31;100.00;147775.78;5020204;28;20591;-62
2023/03/03 06:37:04;;;;;;;135.20;31.23;;;;;;;1.30;100.00;147773.22;5027634;28;20037;-62
2023/03/03 06:39:29;;;;;;;133.40;31.63;;;;;;;1.33;100.00;147780.94;5028495;28;20476;-61
2023/03/03 06:41:55;;;;;;;135.53;29.77;;;;;;;1.37;100.00;147791.22;5018726;28;20389;-62
2023/03/03 06:44:20;;;;;;;123.70;29.80;;;;;;;1.34;100.00;147784.81;5023802;28;20342;-62
2023/03/03 06:46:46;;;;;;;123.80;29.80;;;;;;;1.32;100.00;147778.38;5019648;28;20028;-63
2023/03/03 06:49:11;;;;;;;125.13;28.93;;;;;;;1.36;100.00;147789.94;5022862;28;20037;-62
2023/03/03 06:51:42;;;;;;;103.97;24.40;;;;;;;1.36;100.00;147788.66;5027768;28;20034;-61
2023/03/03 06:54:13;;;;;;;106.32;26.15;;;;;;;1.41;100.00;147801.50;5032585;28;20023;-65
2023/03/03 06:56:40;;;;;;;100.40;24.15;;;;;;;1.41;100.00;147802.78;5021943;28;20036;-65
2023/03/03 06:59:18;;;;;;;100.57;24.77;;;;;;;1.42;100.00;147804.06;5024748;28;20111;-65
2023/03/03 07:01:46;;;;;;;89.57;23.80;;;;;;;1.46;100.00;147814.38;5027153;28;20029;-65
2023/03/03 07:04:30;;;;;;;119.10;31.23;;;;;;;1.55;100.00;147837.47;5021049;28;20022;-65
2023/03/03 07:06:58;;;;;;;94.87;24.93;;;;;;;1.52;100.00;147828.47;5020920;28;20025;-65
2023/03/03 07:09:28;;;;;;;106.13;26.47;;;;;;;1.56;100.00;147838.75;5026537;28;20029;-65
2023/03/03 07:12:00;;;;;;;113.33;26.83;;;;;;;1.48;100.00;147819.50;5024516;28;20037;-65
2023/03/03 07:14:25;;;;;;;110.75;27.30;;;;;;;1.46;100.00;147815.66;5028869;28;20393;-65
2023/03/03 07:17:04;;;;;;;119.53;28.70;;;;;;;1.54;100.00;147834.91;5020598;28;20030;-65
2023/03/03 07:19:34;;;;;;;99.53;24.80;;;;;;;1.53;100.00;147832.31;5017536;28;20029;-65
2023/03/03 07:22:20;;;;;;;105.20;25.60;;;;;;;1.55;100.00;147837.47;5020759;28;20034;-65
2023/03/03 07:24:49;;;;;;;110.80;25.17;;;;;;;1.57;100.00;147841.31;5031019;28;20021;-65
2023/03/03 07:27:27;;;;;;;102.50;25.27;;;;;;;1.68;100.00;147870.88;5026232;28;20033;-65
2023/03/03 07:29:59;;;;;;;104.57;24.73;;;;;;;1.83;100.00;147906.88;5028219;28;20025;-65
2023/03/03 07:32:30;;;;;;;100.80;24.98;;;;;;;1.84;100.00;147909.44;5024367;28;20082;-65
2023/03/03 07:34:56;;;;;;;100.45;25.05;;;;;;;2.01;100.00;147954.41;5028427;28;20029;-65
2023/03/03 07:37:21;;;;;;;110.83;25.93;;;;;;;1.99;100.00;147948.00;5008325;28;20021;-65
2023/03/03 07:39:49;;;;;;;102.17;26.00;;;;;;;2.04;100.00;147962.13;5013825;28;20362;-65
2023/03/03 07:42:45;;;;;;;102.87;25.77;;;;;;;2.13;100.00;147983.97;5024135;28;20021;-65
2023/03/03 07:45:35;;;;;;;102.13;25.00;;;;;;;2.07;100.00;147968.59;5005752;28;20401;-65
2023/03/03 07:48:22;;;;;;;105.70;24.90;;;;;;;2.16;100.00;147991.69;5013428;28;20531;-65
2023/03/03 07:50:48;;;;;;;98.83;23.90;;;;;;;2.34;100.00;148038.00;5027333;28;20021;-65
2023/03/03 07:53:25;;;;;;;98.50;23.67;;;;;;;2.18;100.00;147996.88;5026805;28;20079;-65
2023/03/03 07:55:50;;;;;;;104.70;26.03;;;;;;;2.35;100.00;148040.56;5016059;28;20010;-65
2023/03/03 07:58:26;;;;;;;99.73;24.40;;;;;;;2.20;100.00;148002.00;5020189;28;20041;-65
2023/03/03 08:01:30;;;;;;;107.70;25.60;;;;;;;2.35;100.00;148040.56;5019852;28;20068;-65
2023/03/03 08:03:56;;;;;;;117.90;26.87;;;;;;;2.39;100.00;148049.53;5021407;28;20044;-65
2023/03/03 08:06:34;;;;;;;107.57;25.70;;;;;;;2.42;100.00;148055.97;5024579;28;20079;-65
2023/03/03 08:09:28;;;;;;;126.77;29.53;;;;;;;2.40;100.00;148052.13;5020017;28;20030;-65
2023/03/03 08:12:09;;;;;;;139.00;29.93;;;;;;;2.40;100.00;148052.13;5001600;28;20026;-65
2023/03/03 08:14:36;;;;;;;;;;;;;;;2.49;100.00;148074.00;5025494;28;20030;-65
2023/03/03 08:17:16;;;;;;;129.40;28.53;;;;;;;2.61;100.00;148106.13;5024077;28;19914;-65
2023/03/03 08:19:41;;;;;;;137.03;30.67;;;;;;;2.68;100.00;148122.88;5027999;28;20551;-65
2023/03/03 08:22:17;;;;;;;124.67;29.80;;;;;;;2.76;100.00;148142.16;5029607;28;20048;-65
2023/03/03 08:24:42;;;;;;;126.23;28.03;;;;;;;2.90;100.00;148179.44;5024760;28;20457;-65
2023/03/03 08:27:07;;;;;;;111.90;28.20;;;;;;;3.03;100.00;148210.31;5015978;28;20026;-66
2023/03/03 08:29:33;;;;;;;105.53;26.53;;;;;;;3.06;100.00;148218.06;5030507;28;20037;-66
2023/03/03 08:31:58;;;;;;;121.40;28.43;;;;;;;3.09;100.00;148227.06;5023780;28;20033;-66
2023/03/03 08:34:23;;;;;;;100.33;26.70;;;;;;;2.93;100.00;148185.91;5015943;28;20068;-66
2023/03/03 08:36:49;;;;;;;103.97;27.43;;;;;;;3.17;100.00;148246.38;5023269;28;20029;-66
2023/03/03 08:39:15;;;;;;;91.83;24.73;;;;;;;3.28;100.00;148274.69;5025487;28;20026;-66
2023/03/03 08:41:42;;;;;;;89.37;25.23;;;;;;;3.43;100.00;148312.00;5012293;28;20030;-66
2023/03/03 08:44:08;;;;;;;89.87;26.73;;;;;;;3.53;100.00;148339.03;5026791;28;20148;-66
2023/03/03 08:46:33;;;;;;;77.30;23.77;;;;;;;3.50;100.00;148331.28;5017820;28;20164;-66
2023/03/03 08:48:59;;;;;;;66.33;21.40;;;;;;;3.38;100.00;148300.41;5016280;28;20021;-66
2023/03/03 08:51:25;;;;;;;69.27;21.83;;;;;;;3.62;100.00;148360.91;5030243;28;20030;-66
2023/03/03 08:53:51;;;;;;;64.37;21.53;;;;;;;3.82;100.00;148411.13;5024652;28;20203;-66
2023/03/03 08:56:16;;;;;;;70.23;24.80;;;;;;;3.78;100.00;148400.84;5025609;28;20112;-66
2023/03/03 08:58:46;;;;;;;65.70;22.17;;;;;;;4.01;100.00;148460.06;5026301;28;20028;-66
2023/03/03 09:01:14;;;;;;;57.03;20.97;;;;;;;4.02;100.00;148462.66;5028508;28;20374;-62
2023/03/03 09:03:39;;;;;;;50.13;19.83;;;;;;;3.97;100.00;148449.72;5021160;28;20064;-63
2023/03/03 09:06:05;;;;;;;56.17;21.33;;;;;;;4.08;100.00;148478.06;5023192;28;20017;-63
2023/03/03 09:08:31;;;;;;;52.60;18.73;;;;;;;4.10;100.00;148483.22;5023871;28;20045;-63
2023/03/03 09:10:56;;;;;;;55.07;22.03;;;;;;;4.19;100.00;148503.84;5024925;28;20029;-63
2023/03/03 09:13:21;;;;;;;53.33;21.77;;;;;;;4.01;100.00;148458.78;5028486;28;20056;-64
2023/03/03 09:15:48;;;;;;;42.17;17.87;;;;;;;4.42;100.00;148563.09;5022389;28;20133;-63
2023/03/03 09:18:24;;;;;;;40.33;16.47;;;;;;;4.63;100.00;148617.22;5020144;28;20028;-64
2023/03/03 09:20:52;;;;;;;34.97;16.33;;;;;;;4.82;100.00;148663.59;5012980;28;20018;-63
2023/03/03 09:23:36;;;;;;;39.60;16.43;;;;;;;4.66;100.00;148624.94;5019256;28;20475;-63
2023/03/03 09:26:29;;;;;;;32.17;14.03;;;;;;;5.01;100.00;148712.56;5029642;28;20018;-63
2023/03/03 09:29:12;;;;;;;24.93;11.03;;;;;;;5.38;100.00;148806.69;5011069;28;20052;-63
2023/03/03 09:31:51;;;;;;;27.77;10.87;;;;;;;5.71;100.00;148890.53;5017608;28;20087;-64
2023/03/03 09:34:26;;;;;;;26.77;12.10;;;;;;;5.97;100.00;148955.06;5020184;28;20101;-63
2023/03/03 09:36:53;;;;;;;28.80;13.53;;;;;;;6.49;100.00;149086.66;5026224;28;20029;-63
2023/03/03 09:39:20;;;;;;;26.27;13.43;;;;;;;6.87;100.00;149184.75;5013151;28;20029;-63
2023/03/03 09:42:21;;;;;;;27.47;12.23;;;;;;;6.87;100.00;149184.75;5019352;28;20053;-63
2023/03/03 09:45:08;;;;;;;25.05;12.18;;;;;;;6.92;100.00;149197.69;5029711;28;20360;-63
2023/03/03 09:47:48;;;;;;;24.50;11.03;;;;;;;7.40;100.00;149319.09;5018219;28;20038;-63
2023/03/03 09:50:47;;;;;;;24.17;11.40;;;;;;;7.49;100.00;149341.00;5011848;28;20121;-64
2023/03/03 09:53:41;;;;;;;24.53;12.03;;;;;;;7.52;100.00;149350.09;5023378;28;20037;-64
2023/03/03 09:56:34;;;;;;;24.23;10.20;;;;;;;7.55;100.00;149357.84;5025760;28;20105;-64
2023/03/03 09:59:24;;;;;;;25.37;11.97;;;;;;;7.34;100.00;149303.56;5014119;28;20632;-64
2023/03/03 10:02:01;;;;;;;23.33;11.73;;;;;;;7.14;100.00;149253.19;5017231;28;20025;-64
2023/03/03 10:04:50;;;;;;;22.00;10.87;;;;;;;7.27;100.00;149285.50;5025280;28;20056;-64
2023/03/03 10:07:38;;;;;;;21.97;10.97;;;;;;;6.54;100.00;149099.53;5016432;28;20503;-64
2023/03/03 10:10:22;;;;;;;24.20;11.70;;;;;;;7.20;100.00;149267.41;5020249;28;20029;-64
2023/03/03 10:13:14;;;;;;;32.30;11.60;;;;;;;7.68;100.00;149388.84;5022150;28;20025;-64
2023/03/03 10:15:42;;;;;;;;;;;;;;;7.57;100.00;149363.00;5028363;28;20104;-63
2023/03/03 10:18:44;;;;;;;24.27;12.57;;;;;;;7.28;100.00;149289.38;5025806;28;19921;-63
2023/03/03 10:21:23;;;;;;;26.75;12.98;;;;;;;7.15;100.00;149254.47;5002264;28;20148;-63
2023/03/03 10:23:58;;;;;;;28.00;13.93;;;;;;;7.70;100.00;149395.28;5015296;28;20426;-63
2023/03/03 10:26:23;;;;;;;25.77;12.63;;;;;;;6.46;100.00;149081.50;5017188;28;20022;-63
2023/03/03 10:29:10;;;;;;;21.03;12.50;;;;;;;6.27;100.00;149032.44;5017914;28;20032;-63
2023/03/03 10:32:01;;;;;;;26.80;13.00;;;;;;;7.46;100.00;149334.56;5018730;28;20037;-63
2023/03/03 10:34:48;;;;;;;33.13;13.90;;;;;;;8.16;100.00;149512.88;5009874;28;20029;-63
2023/03/03 10:37:37;;;;;;;26.10;14.03;;;;;;;8.14;100.00;149507.72;5023728;28;20105;-63
2023/03/03 10:40:20;;;;;;;31.23;14.73;;;;;;;7.59;100.00;149368.16;5017967;28;20022;-63
2023/03/03 10:43:24;;;;;;;24.67;13.50;;;;;;;8.09;100.00;149493.50;5015100;28;20100;-63
2023/03/03 10:46:05;;;;;;;26.73;13.10;;;;;;;7.79;100.00;149418.56;5002292;28;20041;-63
2023/03/03 10:48:49;;;;;;;;;;;;;;;7.77;100.00;149412.09;5022006;28;20547;-63
2023/03/03 10:51:41;;;;;;;29.40;14.33;;;;;;;7.80;100.00;149419.84;5026571;28;19925;-63
2023/03/03 10:54:13;;;;;;;35.73;19.00;;;;;;;7.59;100.00;149368.16;5018965;28;20025;-63
2023/03/03 10:56:41;;;;;;;;;;;;;;;7.31;100.00;149295.84;5024802;28;20025;-63
2023/03/03 10:59:22;;;;;;;40.60;22.27;;;;;;;7.82;100.00;149425.00;5007832;28;19916;-64
2023/03/03 11:01:52;;;;;;;33.03;18.60;;;;;;;7.53;100.00;149352.66;5021416;28;20036;-63
2023/03/03 11:04:23;;;;;;;28.50;16.33;;;;;;;6.93;100.00;149200.28;5024531;28;20030;-63
2023/03/03 11:07:02;;;;;;;30.38;16.63;;;;;;;7.44;100.00;149329.41;5026925;28;20041;-63
2023/03/03 11:09:43;;;;;;;33.07;16.97;;;;;;;7.73;100.00;149401.75;5019798;28;20037;-63
2023/03/03 11:12:39;;;;;;;25.00;15.00;;;;;;;8.38;100.00;149567.25;5023811;28;20144;-63
2023/03/03 11:15:17;;;;;;;26.17;14.07;;;;;;;8.64;100.00;149634.47;5014797;28;20079;-63
2023/03/03 11:18:01;;;;;;;26.83;14.17;;;;;;;7.37;100.00;149311.31;5021145;28;20025;-63
2023/03/03 11:20:36;;;;;;;25.60;12.80;;;;;;;7.20;100.00;149268.69;5024024;28;20033;-63
2023/03/03 11:23:20;;;;;;;24.23;12.13;;;;;;;7.19;100.00;149266.13;5020514;28;20025;-63